sensor_id;sensor_type;location;lat;lon;timestamp;pressure;altitude;pressure_sealevel;temperature;humidity
35647;BME280;28680;45.642;13.756;2022-09-19T00:01:49;100770.41;;;17.38;100.00
35647;BME280;28680;45.642;13.756;2022-09-19T00:04:26;100778.88;;;17.49;100.00
35647;BME280;28680;45.642;13.756;2022-09-19T00:06:53;100774.88;;;17.45;100.00
35647;BME280;28680;45.642;13.756;2022-09-19T00:09:25;100773.72;;;17.48;100.00
35647;BME280;28680;45.642;13.756;2022-09-19T00:11:53;100787.81;;;17.48;100.00
35647;BME280;28680;45.642;13.756;2022-09-19T00:14:27;100784.00;;;17.51;100.00
35647;BME280;28680;45.642;13.756;2022-09-19T00:16:57;100786.81;;;17.41;100.00
35647;BME280;28680;45.642;13.756;2022-09-19T00:19:24;100778.03;;;17.49;100.00
35647;BME280;28680;45.642;13.756;2022-09-19T00:21:56;100774.53;;;17.48;100.00
35647;BME280;28680;45.642;13.756;2022-09-19T00:24:23;100768.41;;;17.48;100.00
35647;BME280;28680;45.642;13.756;2022-09-19T00:27:08;100757.47;;;17.51;100.00
35647;BME280;28680;45.642;13.756;2022-09-19T00:29:38;100760.44;;;17.40;100.00
35647;BME280;28680;45.642;13.756;2022-09-19T00:32:06;100754.13;;;17.32;100.00
35647;BME280;28680;45.642;13.756;2022-09-19T00:34:43;100756.13;;;17.39;100.00
35647;BME280;28680;45.642;13.756;2022-09-19T00:37:10;100751.81;;;17.38;100.00
35647;BME280;28680;45.642;13.756;2022-09-19T00:39:37;100746.84;;;17.34;100.00
35647;BME280;28680;45.642;13.756;2022-09-19T00:42:04;100736.56;;;17.40;100.00
35647;BME280;28680;45.642;13.756;2022-09-19T00:49:41;100715.69;;;17.45;100.00
35647;BME280;28680;45.642;13.756;2022-09-19T00:52:15;100714.19;;;17.50;100.00
35647;BME280;28680;45.642;13.756;2022-09-19T00:54:44;100704.56;;;17.49;100.00
35647;BME280;28680;45.642;13.756;2022-09-19T00:57:14;100696.09;;;17.46;100.00
35647;BME280;28680;45.642;13.756;2022-09-19T00:59:46;100699.09;;;17.51;100.00
35647;BME280;28680;45.642;13.756;2022-09-19T01:02:13;100691.97;;;17.43;100.00
35647;BME280;28680;45.642;13.756;2022-09-19T01:04:40;100689.47;;;17.42;100.00
35647;BME280;28680;45.642;13.756;2022-09-19T01:07:31;100681.69;;;17.40;100.00
35647;BME280;28680;45.642;13.756;2022-09-19T01:13:28;100667.09;;;17.52;100.00
35647;BME280;28680;45.642;13.756;2022-09-19T01:16:10;100665.59;;;17.50;100.00
35647;BME280;28680;45.642;13.756;2022-09-19T01:18:58;100655.47;;;17.53;100.00
35647;BME280;28680;45.642;13.756;2022-09-19T01:21:40;100653.00;;;17.60;100.00
35647;BME280;28680;45.642;13.756;2022-09-19T01:30:10;100648.31;;;17.70;100.00
35647;BME280;28680;45.642;13.756;2022-09-19T01:33:14;100647.97;;;17.65;100.00
35647;BME280;28680;45.642;13.756;2022-09-19T01:35:50;100633.91;;;17.65;100.00
35647;BME280;28680;45.642;13.756;2022-09-19T01:38:27;100628.91;;;17.70;100.00
35647;BME280;28680;45.642;13.756;2022-09-19T01:40:54;100629.41;;;17.73;100.00
35647;BME280;28680;45.642;13.756;2022-09-19T01:43:21;100609.31;;;17.71;100.00
35647;BME280;28680;45.642;13.756;2022-09-19T01:45:48;100608.50;;;17.70;100.00
35647;BME280;28680;45.642;13.756;2022-09-19T01:51:18;100621.47;;;17.57;100.00
35647;BME280;28680;45.642;13.756;2022-09-19T01:59:41;100629.34;;;18.06;100.00
35647;BME280;28680;45.642;13.756;2022-09-19T02:05:52;100646.09;;;18.07;100.00
35647;BME280;28680;45.642;13.756;2022-09-19T02:08:31;100650.41;;;18.08;100.00
35647;BME280;28680;45.642;13.756;2022-09-19T02:11:06;100645.09;;;18.08;100.00
35647;BME280;28680;45.642;13.756;2022-09-19T02:13:36;100645.91;;;18.08;100.00
35647;BME280;28680;45.642;13.756;2022-09-19T02:16:13;100635.66;;;17.97;100.00
35647;BME280;28680;45.642;13.756;2022-09-19T02:18:50;100635.16;;;18.02;100.00
35647;BME280;28680;45.642;13.756;2022-09-19T02:21:43;100625.22;;;17.96;100.00
35647;BME280;28680;45.642;13.756;2022-09-19T02:24:15;100625.72;;;17.91;100.00
35647;BME280;28680;45.642;13.756;2022-09-19T02:26:45;100625.72;;;17.91;100.00
35647;BME280;28680;45.642;13.756;2022-09-19T02:29:21;100624.59;;;17.85;100.00
35647;BME280;28680;45.642;13.756;2022-09-19T02:31:50;100624.06;;;17.82;100.00
35647;BME280;28680;45.642;13.756;2022-09-19T02:34:16;100621.56;;;17.80;100.00
35647;BME280;28680;45.642;13.756;2022-09-19T02:37:08;100615.13;;;17.83;100.00
35647;BME280;28680;45.642;13.756;2022-09-19T02:40:06;100615.63;;;17.78;100.00
35647;BME280;28680;45.642;13.756;2022-09-19T02:45:43;100610.13;;;17.80;100.00
35647;BME280;28680;45.642;13.756;2022-09-19T02:51:46;100605.66;;;17.80;100.00
35647;BME280;28680;45.642;13.756;2022-09-19T02:54:24;100604.84;;;17.80;100.00
35647;BME280;28680;45.642;13.756;2022-09-19T02:56:54;100601.06;;;17.66;100.00
35647;BME280;28680;45.642;13.756;2022-09-19T02:59:29;100609.88;;;17.50;100.00
35647;BME280;28680;45.642;13.756;2022-09-19T03:02:01;100609.72;;;17.51;100.00
35647;BME280;28680;45.642;13.756;2022-09-19T03:04:35;100607.69;;;17.70;100.00
35647;BME280;28680;45.642;13.756;2022-09-19T03:07:31;100601.41;;;17.63;100.00
35647;BME280;28680;45.642;13.756;2022-09-19T03:10:07;100602.72;;;17.59;100.00
35647;BME280;28680;45.642;13.756;2022-09-19T03:12:51;100594.13;;;17.57;100.00
35647;BME280;28680;45.642;13.756;2022-09-19T03:17:59;100598.53;;;17.72;100.00
35647;BME280;28680;45.642;13.756;2022-09-19T03:20:26;100593.88;;;17.74;100.00
35647;BME280;28680;45.642;13.756;2022-09-19T03:22:52;100604.34;;;17.76;100.00
35647;BME280;28680;45.642;13.756;2022-09-19T03:25:21;100598.69;;;17.79;100.00
35647;BME280;28680;45.642;13.756;2022-09-19T03:27:47;100599.84;;;17.77;100.00
35647;BME280;28680;45.642;13.756;2022-09-19T03:30:14;100603.19;;;17.70;100.00
35647;BME280;28680;45.642;13.756;2022-09-19T03:32:41;100605.81;;;17.79;100.00
35647;BME280;28680;45.642;13.756;2022-09-19T03:35:08;100605.53;;;17.73;100.00
35647;BME280;28680;45.642;13.756;2022-09-19T03:37:35;100611.81;;;17.72;100.00
35647;BME280;28680;45.642;13.756;2022-09-19T03:40:02;100601.84;;;17.74;100.00
35647;BME280;28680;45.642;13.756;2022-09-19T03:42:28;100611.97;;;17.79;100.00
35647;BME280;28680;45.642;13.756;2022-09-19T03:44:55;100606.84;;;17.78;100.00
35647;BME280;28680;45.642;13.756;2022-09-19T03:47:21;100608.13;;;17.82;100.00
35647;BME280;28680;45.642;13.756;2022-09-19T03:49:50;100608.97;;;17.82;100.00
35647;BME280;28680;45.642;13.756;2022-09-19T03:52:17;100605.66;;;17.80;100.00
35647;BME280;28680;45.642;13.756;2022-09-19T03:54:43;100607.50;;;17.80;100.00
35647;BME280;28680;45.642;13.756;2022-09-19T03:57:13;100608.00;;;17.75;100.00
35647;BME280;28680;45.642;13.756;2022-09-19T03:59:41;100609.53;;;17.69;100.00
35647;BME280;28680;45.642;13.756;2022-09-19T04:02:11;100605.34;;;17.67;100.00
35647;BME280;28680;45.642;13.756;2022-09-19T04:04:37;100612.16;;;17.69;100.00
35647;BME280;28680;45.642;13.756;2022-09-19T04:07:05;100614.63;;;17.79;100.00
35647;BME280;28680;45.642;13.756;2022-09-19T04:09:31;100607.50;;;17.80;100.00
35647;BME280;28680;45.642;13.756;2022-09-19T04:11:57;100606.66;;;17.79;100.00
35647;BME280;28680;45.642;13.756;2022-09-19T04:14:25;100604.34;;;17.76;100.00
35647;BME280;28680;45.642;13.756;2022-09-19T04:16:51;100602.69;;;17.75;100.00
35647;BME280;28680;45.642;13.756;2022-09-19T04:19:17;100604.50;;;17.74;100.00
35647;BME280;28680;45.642;13.756;2022-09-19T04:21:44;100599.56;;;17.71;100.00
35647;BME280;28680;45.642;13.756;2022-09-19T04:24:11;100606.19;;;17.76;100.00
35647;BME280;28680;45.642;13.756;2022-09-19T04:26:38;100600.06;;;17.75;100.00
35647;BME280;28680;45.642;13.756;2022-09-19T04:29:05;100601.84;;;17.74;100.00
35647;BME280;28680;45.642;13.756;2022-09-19T04:31:33;100605.53;;;17.73;100.00
35647;BME280;28680;45.642;13.756;2022-09-19T04:34:07;100603.84;;;17.72;100.00
35647;BME280;28680;45.642;13.756;2022-09-19T04:36:34;100602.88;;;17.65;100.00
35647;BME280;28680;45.642;13.756;2022-09-19T04:39:01;100599.06;;;17.68;100.00
35647;BME280;28680;45.642;13.756;2022-09-19T04:41:32;100593.59;;;17.69;100.00
35647;BME280;28680;45.642;13.756;2022-09-19T04:44:01;100589.28;;;17.68;100.00
35647;BME280;28680;45.642;13.756;2022-09-19T04:46:28;100572.00;;;17.72;100.00
35647;BME280;28680;45.642;13.756;2022-09-19T04:48:58;100575.00;;;17.69;100.00
35647;BME280;28680;45.642;13.756;2022-09-19T04:51:25;100585.31;;;17.64;100.00
35647;BME280;28680;45.642;13.756;2022-09-19T04:53:52;100595.09;;;17.64;100.00
35647;BME280;28680;45.642;13.756;2022-09-19T04:56:19;100586.66;;;17.60;100.00
35647;BME280;28680;45.642;13.756;2022-09-19T04:58:47;100580.66;;;17.66;100.00
35647;BME280;28680;45.642;13.756;2022-09-19T05:01:13;100591.44;;;17.65;100.00
35647;BME280;28680;45.642;13.756;2022-09-19T05:03:41;100585.63;;;17.61;100.00
35647;BME280;28680;45.642;13.756;2022-09-19T05:06:12;100591.59;;;17.63;100.00
35647;BME280;28680;45.642;13.756;2022-09-19T05:08:39;100595.09;;;17.64;100.00
35647;BME280;28680;45.642;13.756;2022-09-19T05:11:07;100599.22;;;17.66;100.00
35647;BME280;28680;45.642;13.756;2022-09-19T05:13:36;100602.06;;;17.65;100.00
35647;BME280;28680;45.642;13.756;2022-09-19T05:16:07;100604.69;;;17.65;100.00
35647;BME280;28680;45.642;13.756;2022-09-19T05:18:34;100601.72;;;17.68;100.00
35647;BME280;28680;45.642;13.756;2022-09-19T05:21:06;100610.50;;;17.68;100.00
35647;BME280;28680;45.642;13.756;2022-09-19T05:23:34;100617.28;;;17.71;100.00
35647;BME280;28680;45.642;13.756;2022-09-19T05:26:11;100629.41;;;17.73;100.00
35647;BME280;28680;45.642;13.756;2022-09-19T05:28:38;100633.88;;;17.73;100.00
35647;BME280;28680;45.642;13.756;2022-09-19T05:31:06;100639.88;;;17.75;100.00
35647;BME280;28680;45.642;13.756;2022-09-19T05:33:33;100644.97;;;17.77;100.00
35647;BME280;28680;45.642;13.756;2022-09-19T05:36:01;100653.59;;;17.79;100.00
35647;BME280;28680;45.642;13.756;2022-09-19T05:38:29;100656.59;;;17.84;100.00
35647;BME280;28680;45.642;13.756;2022-09-19T05:40:58;100663.44;;;17.86;100.00
35647;BME280;28680;45.642;13.756;2022-09-19T05:43:25;100659.28;;;17.92;100.00
35647;BME280;28680;45.642;13.756;2022-09-19T05:45:53;100665.88;;;17.96;100.00
35647;BME280;28680;45.642;13.756;2022-09-19T05:48:19;100660.56;;;17.96;100.00
35647;BME280;28680;45.642;13.756;2022-09-19T05:50:47;100660.22;;;17.99;100.00
35647;BME280;28680;45.642;13.756;2022-09-19T05:53:15;100665.84;;;18.04;100.00
35647;BME280;28680;45.642;13.756;2022-09-19T05:56:00;100677.63;;;18.10;100.00
35647;BME280;28680;45.642;13.756;2022-09-19T05:58:26;100667.50;;;18.14;100.00
35647;BME280;28680;45.642;13.756;2022-09-19T06:00:53;100659.34;;;18.15;100.00
35647;BME280;28680;45.642;13.756;2022-09-19T06:03:20;100666.78;;;18.20;100.00
35647;BME280;28680;45.642;13.756;2022-09-19T06:05:50;100669.44;;;18.20;100.00
35647;BME280;28680;45.642;13.756;2022-09-19T06:08:20;100673.25;;;18.25;100.00
35647;BME280;28680;45.642;13.756;2022-09-19T06:10:48;100667.44;;;18.30;100.00
35647;BME280;28680;45.642;13.756;2022-09-19T06:13:17;100671.41;;;18.34;100.00
35647;BME280;28680;45.642;13.756;2022-09-19T06:15:43;100668.38;;;18.37;100.00
35647;BME280;28680;45.642;13.756;2022-09-19T06:18:09;100667.34;;;18.46;100.00
35647;BME280;28680;45.642;13.756;2022-09-19T06:20:42;100666.84;;;18.51;100.00
35647;BME280;28680;45.642;13.756;2022-09-19T06:23:29;100674.66;;;18.53;100.00
35647;BME280;28680;45.642;13.756;2022-09-19T06:26:02;100676.06;;;18.63;100.00
35647;BME280;28680;45.642;13.756;2022-09-19T06:28:28;100671.06;;;18.68;100.00
35647;BME280;28680;45.642;13.756;2022-09-19T06:30:54;100669.06;;;18.70;100.00
35647;BME280;28680;45.642;13.756;2022-09-19T06:33:21;100680.81;;;18.76;100.00
35647;BME280;28680;45.642;13.756;2022-09-19T06:35:49;100677.63;;;18.89;100.00
35647;BME280;28680;45.642;13.756;2022-09-19T06:38:15;100687.47;;;19.03;100.00
35647;BME280;28680;45.642;13.756;2022-09-19T06:40:41;100685.44;;;19.14;100.00
35647;BME280;28680;45.642;13.756;2022-09-19T06:43:09;100685.00;;;19.25;100.00
35647;BME280;28680;45.642;13.756;2022-09-19T06:45:36;100677.91;;;19.40;100.00
35647;BME280;28680;45.642;13.756;2022-09-19T06:48:08;100686.28;;;19.52;100.00
35647;BME280;28680;45.642;13.756;2022-09-19T06:50:34;100683.19;;;19.63;100.00
35647;BME280;28680;45.642;13.756;2022-09-19T06:53:01;100675.31;;;19.70;100.00
35647;BME280;28680;45.642;13.756;2022-09-19T06:55:27;100676.06;;;19.79;100.00
35647;BME280;28680;45.642;13.756;2022-09-19T06:57:59;100678.84;;;19.85;100.00
35647;BME280;28680;45.642;13.756;2022-09-19T07:00:27;100677.09;;;19.93;100.00
35647;BME280;28680;45.642;13.756;2022-09-19T07:03:00;100678.38;;;19.97;100.00
35647;BME280;28680;45.642;13.756;2022-09-19T07:05:31;100690.22;;;19.79;100.00
35647;BME280;28680;45.642;13.756;2022-09-19T07:07:58;100694.94;;;19.69;100.00
35647;BME280;28680;45.642;13.756;2022-09-19T07:10:24;100696.13;;;19.66;100.00
35647;BME280;28680;45.642;13.756;2022-09-19T07:12:57;100713.16;;;19.42;100.00
35647;BME280;28680;45.642;13.756;2022-09-19T07:15:24;100710.41;;;19.51;100.00
35647;BME280;28680;45.642;13.756;2022-09-19T07:17:55;100711.00;;;19.61;100.00
35647;BME280;28680;45.642;13.756;2022-09-19T07:20:23;100722.38;;;19.93;100.00
35647;BME280;28680;45.642;13.756;2022-09-19T07:23:10;100726.53;;;20.55;100.00
35647;BME280;28680;45.642;13.756;2022-09-19T07:25:36;100727.06;;;20.80;100.00
35647;BME280;28680;45.642;13.756;2022-09-19T07:28:06;100734.56;;;20.91;100.00
35647;BME280;28680;45.642;13.756;2022-09-19T07:30:34;100742.44;;;20.99;100.00
35647;BME280;28680;45.642;13.756;2022-09-19T07:33:03;100745.00;;;21.29;100.00
35647;BME280;28680;45.642;13.756;2022-09-19T07:35:35;100750.34;;;21.29;100.00
35647;BME280;28680;45.642;13.756;2022-09-19T07:38:01;100751.59;;;21.48;100.00
35647;BME280;28680;45.642;13.756;2022-09-19T07:40:28;100751.06;;;21.59;100.00
35647;BME280;28680;45.642;13.756;2022-09-19T07:43:04;100746.63;;;21.67;100.00
35647;BME280;28680;45.642;13.756;2022-09-19T07:45:34;100750.31;;;21.94;100.00
35647;BME280;28680;45.642;13.756;2022-09-19T07:48:00;100745.78;;;21.94;100.00
35647;BME280;28680;45.642;13.756;2022-09-19T07:50:26;100759.91;;;22.16;100.00
35647;BME280;28680;45.642;13.756;2022-09-19T07:53:00;100765.44;;;22.43;100.00
35647;BME280;28680;45.642;13.756;2022-09-19T07:55:27;100772.09;;;22.54;100.00
35647;BME280;28680;45.642;13.756;2022-09-19T07:57:58;100767.03;;;22.72;100.00
35647;BME280;28680;45.642;13.756;2022-09-19T08:00:26;100771.00;;;22.90;100.00
35647;BME280;28680;45.642;13.756;2022-09-19T08:03:03;100783.31;;;22.77;100.00
35647;BME280;28680;45.642;13.756;2022-09-19T08:05:33;100775.19;;;23.06;100.00
35647;BME280;28680;45.642;13.756;2022-09-19T08:08:00;100783.50;;;23.18;100.00
35647;BME280;28680;45.642;13.756;2022-09-19T08:10:27;100784.34;;;23.38;100.00
35647;BME280;28680;45.642;13.756;2022-09-19T08:12:53;100782.88;;;23.29;100.00
35647;BME280;28680;45.642;13.756;2022-09-19T08:15:23;100786.03;;;23.66;100.00
35647;BME280;28680;45.642;13.756;2022-09-19T08:18:09;100788.91;;;23.64;100.00
35647;BME280;28680;45.642;13.756;2022-09-19T08:20:37;100792.22;;;23.80;100.00
35647;BME280;28680;45.642;13.756;2022-09-19T08:23:06;100793.66;;;23.69;100.00
35647;BME280;28680;45.642;13.756;2022-09-19T08:25:34;100799.31;;;23.12;100.00
35647;BME280;28680;45.642;13.756;2022-09-19T08:28:01;100795.00;;;23.11;100.00
35647;BME280;28680;45.642;13.756;2022-09-19T08:30:33;100802.91;;;23.46;100.00
35647;BME280;28680;45.642;13.756;2022-09-19T08:33:02;100797.75;;;23.45;100.00
35647;BME280;28680;45.642;13.756;2022-09-19T08:35:30;100797.16;;;23.69;100.00
35647;BME280;28680;45.642;13.756;2022-09-19T08:37:59;100791.34;;;24.32;100.00
35647;BME280;28680;45.642;13.756;2022-09-19T08:46:36;100809.88;;;24.67;100.00
35647;BME280;28680;45.642;13.756;2022-09-19T08:49:42;100809.41;;;25.22;100.00
35647;BME280;28680;45.642;13.756;2022-09-19T08:52:36;100804.81;;;24.98;100.00
35647;BME280;28680;45.642;13.756;2022-09-19T08:55:11;100801.91;;;24.99;100.00
35647;BME280;28680;45.642;13.756;2022-09-19T08:57:59;100806.34;;;25.12;100.00
35647;BME280;28680;45.642;13.756;2022-09-19T09:00:41;100808.16;;;25.63;100.00
35647;BME280;28680;45.642;13.756;2022-09-19T09:03:16;100812.38;;;25.53;100.00
35647;BME280;28680;45.642;13.756;2022-09-19T09:05:53;100809.09;;;25.44;100.00
35647;BME280;28680;45.642;13.756;2022-09-19T09:11:40;100819.91;;;25.69;100.00
35647;BME280;28680;45.642;13.756;2022-09-19T09:18:15;100817.75;;;25.78;100.00
35647;BME280;28680;45.642;13.756;2022-09-19T09:23:48;100823.22;;;26.40;100.00
35647;BME280;28680;45.642;13.756;2022-09-19T09:26:28;100820.47;;;26.47;100.00
35647;BME280;28680;45.642;13.756;2022-09-19T09:29:08;100824.91;;;26.59;100.00
35647;BME280;28680;45.642;13.756;2022-09-19T09:31:42;100827.22;;;26.74;100.00
35647;BME280;28680;45.642;13.756;2022-09-19T09:34:30;100821.88;;;26.86;100.00
35647;BME280;28680;45.642;13.756;2022-09-19T09:37:17;100828.34;;;26.85;100.00
35647;BME280;28680;45.642;13.756;2022-09-19T09:43:01;100827.44;;;26.91;100.00
35647;BME280;28680;45.642;13.756;2022-09-19T09:45:39;100820.72;;;27.31;100.00
35647;BME280;28680;45.642;13.756;2022-09-19T09:48:14;100819.66;;;26.64;100.00
35647;BME280;28680;45.642;13.756;2022-09-19T09:54:01;100822.31;;;26.46;100.00
35647;BME280;28680;45.642;13.756;2022-09-19T09:56:45;100821.66;;;26.88;100.00
35647;BME280;28680;45.642;13.756;2022-09-19T09:59:34;100828.16;;;26.98;100.00
35647;BME280;28680;45.642;13.756;2022-09-19T10:05:53;100825.75;;;27.27;100.00
35647;BME280;28680;45.642;13.756;2022-09-19T10:11:21;100822.59;;;27.12;100.00
35647;BME280;28680;45.642;13.756;2022-09-19T10:13:52;100824.94;;;26.90;100.00
35647;BME280;28680;45.642;13.756;2022-09-19T10:16:23;100821.78;;;27.11;94.86
35647;BME280;28680;45.642;13.756;2022-09-19T10:19:00;100829.72;;;27.06;100.00
35647;BME280;28680;45.642;13.756;2022-09-19T10:21:31;100833.34;;;27.00;100.00
35647;BME280;28680;45.642;13.756;2022-09-19T10:23:57;100836.16;;;27.05;98.14
35647;BME280;28680;45.642;13.756;2022-09-19T10:26:29;100834.84;;;26.96;98.96
35647;BME280;28680;45.642;13.756;2022-09-19T10:28:56;100833.59;;;27.10;87.95
35647;BME280;28680;45.642;13.756;2022-09-19T10:31:33;100832.78;;;27.28;86.73
35647;BME280;28680;45.642;13.756;2022-09-19T10:34:01;100833.06;;;27.20;89.90
35647;BME280;28680;45.642;13.756;2022-09-19T10:36:31;100833.78;;;27.57;74.70
35647;BME280;28680;45.642;13.756;2022-09-19T10:39:08;100839.16;;;27.99;69.94
35647;BME280;28680;45.642;13.756;2022-09-19T10:41:35;100836.25;;;28.36;83.58
35647;BME280;28680;45.642;13.756;2022-09-19T10:44:25;100850.56;;;28.61;92.79
35647;BME280;28680;45.642;13.756;2022-09-19T10:46:58;100850.00;;;28.99;93.99
35647;BME280;28680;45.642;13.756;2022-09-19T10:49:38;100842.03;;;28.92;93.54
35647;BME280;28680;45.642;13.756;2022-09-19T10:52:12;100846.13;;;28.95;100.00
35647;BME280;28680;45.642;13.756;2022-09-19T10:54:46;100852.81;;;29.04;99.00
35647;BME280;28680;45.642;13.756;2022-09-19T10:57:58;100856.09;;;29.35;91.73
35647;BME280;28680;45.642;13.756;2022-09-19T11:00:33;100852.53;;;29.46;89.87
35647;BME280;28680;45.642;13.756;2022-09-19T11:03:29;100852.06;;;29.66;91.88
35647;BME280;28680;45.642;13.756;2022-09-19T11:06:13;100861.94;;;30.06;89.17
35647;BME280;28680;45.642;13.756;2022-09-19T11:08:47;100846.31;;;30.47;81.80
35647;BME280;28680;45.642;13.756;2022-09-19T11:11:30;100851.03;;;30.79;82.77
35647;BME280;28680;45.642;13.756;2022-09-19T11:14:17;100855.84;;;30.16;86.52
35647;BME280;28680;45.642;13.756;2022-09-19T11:37:52;100865.88;;;30.16;74.25
35647;BME280;28680;45.642;13.756;2022-09-19T11:50:01;100859.47;;;29.88;67.81
35647;BME280;28680;45.642;13.756;2022-09-19T11:58:36;100855.59;;;30.51;61.83
35647;BME280;28680;45.642;13.756;2022-09-19T12:02:02;100855.16;;;29.87;71.30
35647;BME280;28680;45.642;13.756;2022-09-19T12:10:18;100847.56;;;30.23;61.89
35647;BME280;28680;45.642;13.756;2022-09-19T12:15:58;100847.81;;;29.25;54.47
35647;BME280;28680;45.642;13.756;2022-09-19T12:21:04;100849.50;;;29.14;43.32
35647;BME280;28680;45.642;13.756;2022-09-19T12:23:52;100846.06;;;29.47;43.86
35647;BME280;28680;45.642;13.756;2022-09-19T12:27:27;100844.72;;;29.33;42.73
35647;BME280;28680;45.642;13.756;2022-09-19T12:30:14;100843.88;;;29.15;42.92
35647;BME280;28680;45.642;13.756;2022-09-19T12:35:33;100841.75;;;29.06;40.13
35647;BME280;28680;45.642;13.756;2022-09-19T12:38:24;100846.91;;;29.19;38.40
35647;BME280;28680;45.642;13.756;2022-09-19T12:50:04;100840.09;;;28.41;39.28
35647;BME280;28680;45.642;13.756;2022-09-19T12:52:38;100833.28;;;28.62;39.57
35647;BME280;28680;45.642;13.756;2022-09-19T12:55:20;100849.00;;;28.41;41.32
35647;BME280;28680;45.642;13.756;2022-09-19T12:58:14;100845.41;;;28.12;43.59
35647;BME280;28680;45.642;13.756;2022-09-19T13:00:44;100841.38;;;27.79;45.40
35647;BME280;28680;45.642;13.756;2022-09-19T13:03:32;100845.75;;;28.51;45.13
35647;BME280;28680;45.642;13.756;2022-09-19T13:06:08;100850.34;;;28.15;48.78
35647;BME280;28680;45.642;13.756;2022-09-19T13:11:37;100851.66;;;29.00;47.06
35647;BME280;28680;45.642;13.756;2022-09-19T13:14:23;100839.22;;;29.28;47.72
35647;BME280;28680;45.642;13.756;2022-09-19T13:17:01;100843.22;;;29.71;45.85
35647;BME280;28680;45.642;13.756;2022-09-19T13:19:47;100837.72;;;29.66;48.09
35647;BME280;28680;45.642;13.756;2022-09-19T13:22:52;100839.50;;;30.45;44.97
35647;BME280;28680;45.642;13.756;2022-09-19T13:25:38;100842.03;;;30.51;45.27
35647;BME280;28680;45.642;13.756;2022-09-19T13:31:00;100845.53;;;30.13;48.34
35647;BME280;28680;45.642;13.756;2022-09-19T13:33:46;100840.13;;;29.62;50.26
35647;BME280;28680;45.642;13.756;2022-09-19T13:38:57;100852.03;;;29.78;47.66
35647;BME280;28680;45.642;13.756;2022-09-19T13:41:54;100848.63;;;29.71;51.07
35647;BME280;28680;45.642;13.756;2022-09-19T13:44:42;100851.06;;;29.55;51.17
35647;BME280;28680;45.642;13.756;2022-09-19T13:47:25;100852.78;;;29.62;49.56
35647;BME280;28680;45.642;13.756;2022-09-19T13:52:48;100849.69;;;29.70;44.70
35647;BME280;28680;45.642;13.756;2022-09-19T13:55:29;100851.09;;;29.72;46.75
35647;BME280;28680;45.642;13.756;2022-09-19T14:01:17;100849.78;;;30.09;44.17
35647;BME280;28680;45.642;13.756;2022-09-19T14:03:59;100851.34;;;30.05;41.89
35647;BME280;28680;45.642;13.756;2022-09-19T14:06:54;100850.34;;;30.11;42.40
35647;BME280;28680;45.642;13.756;2022-09-19T14:09:37;100854.22;;;29.35;42.00
35647;BME280;28680;45.642;13.756;2022-09-19T14:23:12;100867.06;;;30.59;42.17
35647;BME280;28680;45.642;13.756;2022-09-19T14:25:41;100868.06;;;30.36;43.49
35647;BME280;28680;45.642;13.756;2022-09-19T14:41:34;100865.53;;;32.31;37.85
35647;BME280;28680;45.642;13.756;2022-09-19T14:52:17;100857.47;;;31.72;38.01
35647;BME280;28680;45.642;13.756;2022-09-19T14:54:58;100863.84;;;31.88;36.70
35647;BME280;28680;45.642;13.756;2022-09-19T14:57:26;100857.03;;;31.85;37.85
35647;BME280;28680;45.642;13.756;2022-09-19T14:59:52;100863.50;;;32.11;36.89
35647;BME280;28680;45.642;13.756;2022-09-19T15:02:32;100863.84;;;31.88;39.32
35647;BME280;28680;45.642;13.756;2022-09-19T15:05:21;100864.97;;;31.59;40.45
35647;BME280;28680;45.642;13.756;2022-09-19T15:07:51;100873.44;;;32.33;36.44
35647;BME280;28680;45.642;13.756;2022-09-19T15:10:34;100872.66;;;32.48;36.03
35647;BME280;28680;45.642;13.756;2022-09-19T15:16:05;100879.00;;;33.16;33.90
35647;BME280;28680;45.642;13.756;2022-09-19T15:18:46;100880.25;;;32.88;29.95
35647;BME280;28680;45.642;13.756;2022-09-19T15:21:23;100871.28;;;32.88;31.55
35647;BME280;28680;45.642;13.756;2022-09-19T15:23:56;100873.44;;;32.86;34.43
35647;BME280;28680;45.642;13.756;2022-09-19T15:26:45;100871.84;;;33.00;32.57
35647;BME280;28680;45.642;13.756;2022-09-19T15:29:29;100866.44;;;33.05;31.15
35647;BME280;28680;45.642;13.756;2022-09-19T15:32:29;100878.31;;;32.78;29.75
35647;BME280;28680;45.642;13.756;2022-09-19T15:35:11;100867.22;;;31.40;29.77
35647;BME280;28680;45.642;13.756;2022-09-19T15:37:43;100877.38;;;30.84;30.50
35647;BME280;28680;45.642;13.756;2022-09-19T15:40:21;100876.03;;;30.42;30.90
35647;BME280;28680;45.642;13.756;2022-09-19T15:42:49;100870.22;;;30.73;32.93
35647;BME280;28680;45.642;13.756;2022-09-19T15:48:00;100869.66;;;30.93;33.31
35647;BME280;28680;45.642;13.756;2022-09-19T15:50:34;100878.72;;;30.25;30.65
35647;BME280;28680;45.642;13.756;2022-09-19T15:53:02;100883.38;;;30.30;33.70
35647;BME280;28680;45.642;13.756;2022-09-19T15:55:28;100876.34;;;30.29;33.25
35647;BME280;28680;45.642;13.756;2022-09-19T15:58:00;100873.44;;;30.52;34.21
35647;BME280;28680;45.642;13.756;2022-09-19T16:00:28;100885.03;;;30.31;31.69
35647;BME280;28680;45.642;13.756;2022-09-19T16:03:01;100880.22;;;29.99;30.47
35647;BME280;28680;45.642;13.756;2022-09-19T16:05:34;100888.03;;;29.67;31.06